<?xml version="1.0" encoding="UTF-8" standalone="no" ?>
<gpx xmlns="http://www.topografix.com/GPX/1/1" xmlns:xsi="http://www.w3.org/2001/XMLSchema-instance" xsi:schemaLocation="http://www.topografix.com/GPX/1/1 http://www.topografix.com/GPX/1/1/gpx.xsd" version="1.1" creator="VisuGPX - https://www.visugpx.com">
  <metadata>
    <name>Le 9 mai, a l'abri du vent.</name>
    <desc><![CDATA[Le 9 mai, a l'abri du vent.]]></desc>
  </metadata>
  <trk>
    <name><![CDATA[2021-05-09 16:08:54]]></name>
    <trkseg>
      <trkpt lat="45.07175" lon="5.64296">
        <ele>383.9</ele>
        <time>2021-05-09T12:08:21Z</time>
      </trkpt>
      <trkpt lat="45.07176" lon="5.64295">
        <ele>383.9</ele>
        <time>2021-05-09T12:08:51Z</time>
      </trkpt>
      <trkpt lat="45.07176" lon="5.64288">
        <ele>384.3</ele>
        <time>2021-05-09T12:09:08Z</time>
      </trkpt>
      <trkpt lat="45.07173" lon="5.64276">
        <ele>384.9</ele>
        <time>2021-05-09T12:09:24Z</time>
      </trkpt>
      <trkpt lat="45.07163" lon="5.64263">
        <ele>385.2</ele>
        <time>2021-05-09T12:09:40Z</time>
      </trkpt>
      <trkpt lat="45.07152" lon="5.64246">
        <ele>385.8</ele>
        <time>2021-05-09T12:10:00Z</time>
      </trkpt>
      <trkpt lat="45.07155" lon="5.64246">
        <ele>385.9</ele>
        <time>2021-05-09T12:10:21Z</time>
      </trkpt>
      <trkpt lat="45.07148" lon="5.64267">
        <ele>384.5</ele>
        <time>2021-05-09T12:10:41Z</time>
      </trkpt>
      <trkpt lat="45.07132" lon="5.64296">
        <ele>382.6</ele>
        <time>2021-05-09T12:11:10Z</time>
      </trkpt>
      <trkpt lat="45.07117" lon="5.6433">
        <ele>380.4</ele>
        <time>2021-05-09T12:11:36Z</time>
      </trkpt>
      <trkpt lat="45.07115" lon="5.64333">
        <ele>380.1</ele>
        <time>2021-05-09T12:11:39Z</time>
      </trkpt>
      <trkpt lat="45.07099" lon="5.64362">
        <ele>378</ele>
        <time>2021-05-09T12:12:05Z</time>
      </trkpt>
      <trkpt lat="45.07086" lon="5.64393">
        <ele>376.2</ele>
        <time>2021-05-09T12:12:30Z</time>
      </trkpt>
      <trkpt lat="45.07075" lon="5.64418">
        <ele>374.8</ele>
        <time>2021-05-09T12:12:55Z</time>
      </trkpt>
      <trkpt lat="45.07068" lon="5.64443">
        <ele>373.6</ele>
        <time>2021-05-09T12:13:17Z</time>
      </trkpt>
      <trkpt lat="45.07052" lon="5.64471">
        <ele>372.3</ele>
        <time>2021-05-09T12:13:39Z</time>
      </trkpt>
      <trkpt lat="45.07033" lon="5.64489">
        <ele>371.4</ele>
        <time>2021-05-09T12:14:04Z</time>
      </trkpt>
      <trkpt lat="45.07013" lon="5.64504">
        <ele>370.9</ele>
        <time>2021-05-09T12:14:29Z</time>
      </trkpt>
      <trkpt lat="45.07" lon="5.64518">
        <ele>370.6</ele>
        <time>2021-05-09T12:14:49Z</time>
      </trkpt>
      <trkpt lat="45.06982" lon="5.64534">
        <ele>370.9</ele>
        <time>2021-05-09T12:15:13Z</time>
      </trkpt>
      <trkpt lat="45.06956" lon="5.64556">
        <ele>371.3</ele>
        <time>2021-05-09T12:15:40Z</time>
      </trkpt>
      <trkpt lat="45.06933" lon="5.64581">
        <ele>371.5</ele>
        <time>2021-05-09T12:16:07Z</time>
      </trkpt>
      <trkpt lat="45.06908" lon="5.64603">
        <ele>371.6</ele>
        <time>2021-05-09T12:16:34Z</time>
      </trkpt>
      <trkpt lat="45.06893" lon="5.64614">
        <ele>371.5</ele>
        <time>2021-05-09T12:16:57Z</time>
      </trkpt>
      <trkpt lat="45.06878" lon="5.64632">
        <ele>371.1</ele>
        <time>2021-05-09T12:17:19Z</time>
      </trkpt>
      <trkpt lat="45.06852" lon="5.64656">
        <ele>370.3</ele>
        <time>2021-05-09T12:17:48Z</time>
      </trkpt>
      <trkpt lat="45.06837" lon="5.64669">
        <ele>369.9</ele>
        <time>2021-05-09T12:18:09Z</time>
      </trkpt>
      <trkpt lat="45.06815" lon="5.64688">
        <ele>370</ele>
        <time>2021-05-09T12:18:33Z</time>
      </trkpt>
      <trkpt lat="45.06797" lon="5.64708">
        <ele>370.3</ele>
        <time>2021-05-09T12:18:56Z</time>
      </trkpt>
      <trkpt lat="45.06778" lon="5.64712">
        <ele>370.9</ele>
        <time>2021-05-09T12:19:17Z</time>
      </trkpt>
      <trkpt lat="45.06766" lon="5.64684">
        <ele>371.5</ele>
        <time>2021-05-09T12:19:41Z</time>
      </trkpt>
      <trkpt lat="45.06756" lon="5.64669">
        <ele>371.8</ele>
        <time>2021-05-09T12:20:00Z</time>
      </trkpt>
      <trkpt lat="45.06739" lon="5.64647">
        <ele>373.2</ele>
        <time>2021-05-09T12:20:25Z</time>
      </trkpt>
      <trkpt lat="45.0673" lon="5.64635">
        <ele>373.8</ele>
        <time>2021-05-09T12:20:41Z</time>
      </trkpt>
      <trkpt lat="45.06717" lon="5.64604">
        <ele>375.2</ele>
        <time>2021-05-09T12:21:07Z</time>
      </trkpt>
      <trkpt lat="45.06711" lon="5.64569">
        <ele>376.7</ele>
        <time>2021-05-09T12:21:33Z</time>
      </trkpt>
      <trkpt lat="45.06701" lon="5.64533">
        <ele>378.4</ele>
        <time>2021-05-09T12:22:01Z</time>
      </trkpt>
      <trkpt lat="45.06694" lon="5.64498">
        <ele>380.1</ele>
        <time>2021-05-09T12:22:28Z</time>
      </trkpt>
      <trkpt lat="45.06683" lon="5.6447">
        <ele>381.4</ele>
        <time>2021-05-09T12:22:52Z</time>
      </trkpt>
      <trkpt lat="45.06671" lon="5.64444">
        <ele>382.7</ele>
        <time>2021-05-09T12:23:14Z</time>
      </trkpt>
      <trkpt lat="45.06658" lon="5.64416">
        <ele>384.1</ele>
        <time>2021-05-09T12:23:37Z</time>
      </trkpt>
      <trkpt lat="45.06646" lon="5.64393">
        <ele>385</ele>
        <time>2021-05-09T12:24:01Z</time>
      </trkpt>
      <trkpt lat="45.06639" lon="5.64361">
        <ele>386.1</ele>
        <time>2021-05-09T12:24:26Z</time>
      </trkpt>
      <trkpt lat="45.06635" lon="5.64326">
        <ele>387.3</ele>
        <time>2021-05-09T12:24:50Z</time>
      </trkpt>
      <trkpt lat="45.06631" lon="5.64303">
        <ele>388.2</ele>
        <time>2021-05-09T12:25:10Z</time>
      </trkpt>
      <trkpt lat="45.06625" lon="5.64286">
        <ele>389</ele>
        <time>2021-05-09T12:25:30Z</time>
      </trkpt>
      <trkpt lat="45.06614" lon="5.64259">
        <ele>390.5</ele>
        <time>2021-05-09T12:25:51Z</time>
      </trkpt>
      <trkpt lat="45.06604" lon="5.64232">
        <ele>391.9</ele>
        <time>2021-05-09T12:26:14Z</time>
      </trkpt>
      <trkpt lat="45.06594" lon="5.64206">
        <ele>393.2</ele>
        <time>2021-05-09T12:26:35Z</time>
      </trkpt>
      <trkpt lat="45.06585" lon="5.6418">
        <ele>394.5</ele>
        <time>2021-05-09T12:26:58Z</time>
      </trkpt>
      <trkpt lat="45.06576" lon="5.64154">
        <ele>395.8</ele>
        <time>2021-05-09T12:27:19Z</time>
      </trkpt>
      <trkpt lat="45.06567" lon="5.64123">
        <ele>397.6</ele>
        <time>2021-05-09T12:27:44Z</time>
      </trkpt>
      <trkpt lat="45.0656" lon="5.64103">
        <ele>398.7</ele>
        <time>2021-05-09T12:28:05Z</time>
      </trkpt>
      <trkpt lat="45.06558" lon="5.64099">
        <ele>398.9</ele>
        <time>2021-05-09T12:28:28Z</time>
      </trkpt>
      <trkpt lat="45.06558" lon="5.64101">
        <ele>398.8</ele>
        <time>2021-05-09T12:28:58Z</time>
      </trkpt>
      <trkpt lat="45.06554" lon="5.64086">
        <ele>399.6</ele>
        <time>2021-05-09T12:29:22Z</time>
      </trkpt>
      <trkpt lat="45.06545" lon="5.6406">
        <ele>400.6</ele>
        <time>2021-05-09T12:29:47Z</time>
      </trkpt>
      <trkpt lat="45.06535" lon="5.64038">
        <ele>401.6</ele>
        <time>2021-05-09T12:30:10Z</time>
      </trkpt>
      <trkpt lat="45.06525" lon="5.64019">
        <ele>402.5</ele>
        <time>2021-05-09T12:30:31Z</time>
      </trkpt>
      <trkpt lat="45.0651" lon="5.63996">
        <ele>403.8</ele>
        <time>2021-05-09T12:30:56Z</time>
      </trkpt>
      <trkpt lat="45.06496" lon="5.63975">
        <ele>405.7</ele>
        <time>2021-05-09T12:31:18Z</time>
      </trkpt>
      <trkpt lat="45.0648" lon="5.63958">
        <ele>408.5</ele>
        <time>2021-05-09T12:31:42Z</time>
      </trkpt>
      <trkpt lat="45.06464" lon="5.63944">
        <ele>411</ele>
        <time>2021-05-09T12:32:05Z</time>
      </trkpt>
      <trkpt lat="45.06457" lon="5.63936">
        <ele>412.3</ele>
        <time>2021-05-09T12:32:32Z</time>
      </trkpt>
      <trkpt lat="45.06439" lon="5.63921">
        <ele>415.2</ele>
        <time>2021-05-09T12:32:57Z</time>
      </trkpt>
      <trkpt lat="45.06425" lon="5.63913">
        <ele>417.1</ele>
        <time>2021-05-09T12:33:22Z</time>
      </trkpt>
      <trkpt lat="45.06411" lon="5.63904">
        <ele>420</ele>
        <time>2021-05-09T12:33:50Z</time>
      </trkpt>
      <trkpt lat="45.06405" lon="5.63874">
        <ele>421.8</ele>
        <time>2021-05-09T12:34:15Z</time>
      </trkpt>
      <trkpt lat="45.06399" lon="5.63856">
        <ele>423.8</ele>
        <time>2021-05-09T12:34:35Z</time>
      </trkpt>
      <trkpt lat="45.06393" lon="5.63834">
        <ele>425.9</ele>
        <time>2021-05-09T12:34:59Z</time>
      </trkpt>
      <trkpt lat="45.06387" lon="5.6382">
        <ele>428.1</ele>
        <time>2021-05-09T12:35:24Z</time>
      </trkpt>
      <trkpt lat="45.06379" lon="5.63804">
        <ele>431</ele>
        <time>2021-05-09T12:35:46Z</time>
      </trkpt>
      <trkpt lat="45.06376" lon="5.6379">
        <ele>432.2</ele>
        <time>2021-05-09T12:36:10Z</time>
      </trkpt>
      <trkpt lat="45.0637" lon="5.63763">
        <ele>435.1</ele>
        <time>2021-05-09T12:36:36Z</time>
      </trkpt>
      <trkpt lat="45.06364" lon="5.63746">
        <ele>437.3</ele>
        <time>2021-05-09T12:36:59Z</time>
      </trkpt>
      <trkpt lat="45.06352" lon="5.63723">
        <ele>440.3</ele>
        <time>2021-05-09T12:37:26Z</time>
      </trkpt>
      <trkpt lat="45.06345" lon="5.63704">
        <ele>441.7</ele>
        <time>2021-05-09T12:37:51Z</time>
      </trkpt>
      <trkpt lat="45.06334" lon="5.63684">
        <ele>442.7</ele>
        <time>2021-05-09T12:38:16Z</time>
      </trkpt>
      <trkpt lat="45.06331" lon="5.63678">
        <ele>443.2</ele>
        <time>2021-05-09T12:38:39Z</time>
      </trkpt>
      <trkpt lat="45.0633" lon="5.63667">
        <ele>443.1</ele>
        <time>2021-05-09T12:39:09Z</time>
      </trkpt>
      <trkpt lat="45.0632" lon="5.63644">
        <ele>445.3</ele>
        <time>2021-05-09T12:39:32Z</time>
      </trkpt>
      <trkpt lat="45.06297" lon="5.6362">
        <ele>449.8</ele>
        <time>2021-05-09T12:40:02Z</time>
      </trkpt>
      <trkpt lat="45.06285" lon="5.63604">
        <ele>451.3</ele>
        <time>2021-05-09T12:40:27Z</time>
      </trkpt>
      <trkpt lat="45.06273" lon="5.63588">
        <ele>452.3</ele>
        <time>2021-05-09T12:40:54Z</time>
      </trkpt>
      <trkpt lat="45.0626" lon="5.63572">
        <ele>453.3</ele>
        <time>2021-05-09T12:41:23Z</time>
      </trkpt>
      <trkpt lat="45.06251" lon="5.63542">
        <ele>452.4</ele>
        <time>2021-05-09T12:41:48Z</time>
      </trkpt>
      <trkpt lat="45.06243" lon="5.63516">
        <ele>452.6</ele>
        <time>2021-05-09T12:42:16Z</time>
      </trkpt>
      <trkpt lat="45.06234" lon="5.63488">
        <ele>453.8</ele>
        <time>2021-05-09T12:42:40Z</time>
      </trkpt>
      <trkpt lat="45.06235" lon="5.63476">
        <ele>453.2</ele>
        <time>2021-05-09T12:43:03Z</time>
      </trkpt>
      <trkpt lat="45.06237" lon="5.63448">
        <ele>452.4</ele>
        <time>2021-05-09T12:43:25Z</time>
      </trkpt>
      <trkpt lat="45.06235" lon="5.63421">
        <ele>452.8</ele>
        <time>2021-05-09T12:43:48Z</time>
      </trkpt>
      <trkpt lat="45.06226" lon="5.634">
        <ele>454.8</ele>
        <time>2021-05-09T12:44:10Z</time>
      </trkpt>
      <trkpt lat="45.06208" lon="5.63378">
        <ele>457.3</ele>
        <time>2021-05-09T12:44:34Z</time>
      </trkpt>
      <trkpt lat="45.06189" lon="5.63362">
        <ele>458.9</ele>
        <time>2021-05-09T12:44:57Z</time>
      </trkpt>
      <trkpt lat="45.06175" lon="5.63347">
        <ele>459.4</ele>
        <time>2021-05-09T12:45:21Z</time>
      </trkpt>
      <trkpt lat="45.06162" lon="5.63321">
        <ele>460.3</ele>
        <time>2021-05-09T12:45:48Z</time>
      </trkpt>
      <trkpt lat="45.06154" lon="5.633">
        <ele>462.2</ele>
        <time>2021-05-09T12:46:12Z</time>
      </trkpt>
      <trkpt lat="45.06142" lon="5.63275">
        <ele>464.2</ele>
        <time>2021-05-09T12:46:37Z</time>
      </trkpt>
      <trkpt lat="45.06137" lon="5.63254">
        <ele>464.7</ele>
        <time>2021-05-09T12:47:05Z</time>
      </trkpt>
      <trkpt lat="45.0614" lon="5.63236">
        <ele>465.2</ele>
        <time>2021-05-09T12:47:30Z</time>
      </trkpt>
      <trkpt lat="45.06143" lon="5.63229">
        <ele>465.4</ele>
        <time>2021-05-09T12:47:52Z</time>
      </trkpt>
      <trkpt lat="45.06151" lon="5.63214">
        <ele>465.8</ele>
        <time>2021-05-09T12:48:12Z</time>
      </trkpt>
      <trkpt lat="45.06159" lon="5.63206">
        <ele>465.6</ele>
        <time>2021-05-09T12:48:38Z</time>
      </trkpt>
      <trkpt lat="45.06169" lon="5.63203">
        <ele>465</ele>
        <time>2021-05-09T12:49:05Z</time>
      </trkpt>
      <trkpt lat="45.06187" lon="5.63181">
        <ele>466.3</ele>
        <time>2021-05-09T12:49:32Z</time>
      </trkpt>
      <trkpt lat="45.06208" lon="5.6316">
        <ele>467</ele>
        <time>2021-05-09T12:50:00Z</time>
      </trkpt>
      <trkpt lat="45.06219" lon="5.63146">
        <ele>467.5</ele>
        <time>2021-05-09T12:50:24Z</time>
      </trkpt>
      <trkpt lat="45.06219" lon="5.63163">
        <ele>466.2</ele>
        <time>2021-05-09T12:50:46Z</time>
      </trkpt>
      <trkpt lat="45.06222" lon="5.63148">
        <ele>467.2</ele>
        <time>2021-05-09T12:51:07Z</time>
      </trkpt>
      <trkpt lat="45.06224" lon="5.6314">
        <ele>467.7</ele>
        <time>2021-05-09T12:51:35Z</time>
      </trkpt>
      <trkpt lat="45.06221" lon="5.63138">
        <ele>468</ele>
        <time>2021-05-09T12:51:57Z</time>
      </trkpt>
      <trkpt lat="45.06223" lon="5.63129">
        <ele>468.7</ele>
        <time>2021-05-09T12:52:22Z</time>
      </trkpt>
      <trkpt lat="45.06221" lon="5.63135">
        <ele>468.2</ele>
        <time>2021-05-09T12:52:46Z</time>
      </trkpt>
      <trkpt lat="45.06223" lon="5.63136">
        <ele>468</ele>
        <time>2021-05-09T12:53:14Z</time>
      </trkpt>
      <trkpt lat="45.06222" lon="5.63134">
        <ele>468.3</ele>
        <time>2021-05-09T12:53:42Z</time>
      </trkpt>
      <trkpt lat="45.06233" lon="5.63135">
        <ele>467.6</ele>
        <time>2021-05-09T12:54:06Z</time>
      </trkpt>
      <trkpt lat="45.06233" lon="5.63144">
        <ele>466.8</ele>
        <time>2021-05-09T12:54:26Z</time>
      </trkpt>
      <trkpt lat="45.06225" lon="5.63132">
        <ele>468.2</ele>
        <time>2021-05-09T12:54:51Z</time>
      </trkpt>
      <trkpt lat="45.06226" lon="5.63136">
        <ele>468</ele>
        <time>2021-05-09T12:55:19Z</time>
      </trkpt>
      <trkpt lat="45.06223" lon="5.63138">
        <ele>467.9</ele>
        <time>2021-05-09T12:55:51Z</time>
      </trkpt>
      <trkpt lat="45.06225" lon="5.63135">
        <ele>468.1</ele>
        <time>2021-05-09T12:56:22Z</time>
      </trkpt>
      <trkpt lat="45.06224" lon="5.63148">
        <ele>467.1</ele>
        <time>2021-05-09T12:56:49Z</time>
      </trkpt>
      <trkpt lat="45.06222" lon="5.63147">
        <ele>467.3</ele>
        <time>2021-05-09T12:57:25Z</time>
      </trkpt>
      <trkpt lat="45.06221" lon="5.63134">
        <ele>468.3</ele>
        <time>2021-05-09T12:57:51Z</time>
      </trkpt>
      <trkpt lat="45.06226" lon="5.6314">
        <ele>467.6</ele>
        <time>2021-05-09T12:58:15Z</time>
      </trkpt>
      <trkpt lat="45.06224" lon="5.63145">
        <ele>467.3</ele>
        <time>2021-05-09T12:58:42Z</time>
      </trkpt>
      <trkpt lat="45.06223" lon="5.63138">
        <ele>467.9</ele>
        <time>2021-05-09T12:59:09Z</time>
      </trkpt>
      <trkpt lat="45.0622" lon="5.63135">
        <ele>468.4</ele>
        <time>2021-05-09T12:59:38Z</time>
      </trkpt>
      <trkpt lat="45.06219" lon="5.6314">
        <ele>468</ele>
        <time>2021-05-09T13:00:04Z</time>
      </trkpt>
      <trkpt lat="45.0622" lon="5.63132">
        <ele>468.6</ele>
        <time>2021-05-09T13:00:30Z</time>
      </trkpt>
      <trkpt lat="45.06223" lon="5.6313">
        <ele>468.5</ele>
        <time>2021-05-09T13:01:01Z</time>
      </trkpt>
      <trkpt lat="45.06227" lon="5.63135">
        <ele>467.9</ele>
        <time>2021-05-09T13:01:23Z</time>
      </trkpt>
      <trkpt lat="45.06225" lon="5.63134">
        <ele>468.1</ele>
        <time>2021-05-09T13:01:48Z</time>
      </trkpt>
      <trkpt lat="45.06227" lon="5.63136">
        <ele>467.9</ele>
        <time>2021-05-09T13:02:19Z</time>
      </trkpt>
      <trkpt lat="45.06224" lon="5.6313">
        <ele>468.5</ele>
        <time>2021-05-09T13:02:42Z</time>
      </trkpt>
      <trkpt lat="45.06222" lon="5.63136">
        <ele>468.1</ele>
        <time>2021-05-09T13:03:13Z</time>
      </trkpt>
      <trkpt lat="45.06218" lon="5.63137">
        <ele>468.3</ele>
        <time>2021-05-09T13:03:42Z</time>
      </trkpt>
      <trkpt lat="45.06222" lon="5.63134">
        <ele>468.3</ele>
        <time>2021-05-09T13:04:08Z</time>
      </trkpt>
      <trkpt lat="45.06222" lon="5.63134">
        <ele>468.3</ele>
        <time>2021-05-09T13:04:39Z</time>
      </trkpt>
      <trkpt lat="45.06221" lon="5.63139">
        <ele>467.9</ele>
        <time>2021-05-09T13:05:08Z</time>
      </trkpt>
      <trkpt lat="45.06222" lon="5.63139">
        <ele>467.9</ele>
        <time>2021-05-09T13:05:41Z</time>
      </trkpt>
      <trkpt lat="45.06219" lon="5.63142">
        <ele>467.8</ele>
        <time>2021-05-09T13:06:15Z</time>
      </trkpt>
      <trkpt lat="45.06222" lon="5.63138">
        <ele>467.9</ele>
        <time>2021-05-09T13:06:51Z</time>
      </trkpt>
      <trkpt lat="45.0622" lon="5.63135">
        <ele>468.3</ele>
        <time>2021-05-09T13:07:19Z</time>
      </trkpt>
      <trkpt lat="45.06219" lon="5.63135">
        <ele>468.4</ele>
        <time>2021-05-09T13:07:45Z</time>
      </trkpt>
      <trkpt lat="45.06215" lon="5.63135">
        <ele>468.6</ele>
        <time>2021-05-09T13:08:17Z</time>
      </trkpt>
      <trkpt lat="45.06223" lon="5.63141">
        <ele>467.7</ele>
        <time>2021-05-09T13:08:44Z</time>
      </trkpt>
      <trkpt lat="45.06217" lon="5.63148">
        <ele>467.5</ele>
        <time>2021-05-09T13:09:12Z</time>
      </trkpt>
      <trkpt lat="45.06212" lon="5.63156">
        <ele>467.1</ele>
        <time>2021-05-09T13:09:43Z</time>
      </trkpt>
      <trkpt lat="45.06217" lon="5.63155">
        <ele>466.9</ele>
        <time>2021-05-09T13:10:13Z</time>
      </trkpt>
      <trkpt lat="45.06237" lon="5.63161">
        <ele>465.3</ele>
        <time>2021-05-09T13:10:39Z</time>
      </trkpt>
      <trkpt lat="45.06233" lon="5.63136">
        <ele>467.6</ele>
        <time>2021-05-09T13:11:03Z</time>
      </trkpt>
      <trkpt lat="45.06232" lon="5.6314">
        <ele>467.3</ele>
        <time>2021-05-09T13:11:27Z</time>
      </trkpt>
      <trkpt lat="45.06225" lon="5.63145">
        <ele>467.3</ele>
        <time>2021-05-09T13:11:53Z</time>
      </trkpt>
      <trkpt lat="45.06217" lon="5.63155">
        <ele>466.9</ele>
        <time>2021-05-09T13:12:21Z</time>
      </trkpt>
      <trkpt lat="45.06214" lon="5.63151">
        <ele>467.4</ele>
        <time>2021-05-09T13:12:47Z</time>
      </trkpt>
      <trkpt lat="45.06221" lon="5.63145">
        <ele>467.5</ele>
        <time>2021-05-09T13:13:20Z</time>
      </trkpt>
      <trkpt lat="45.06222" lon="5.63147">
        <ele>467.3</ele>
        <time>2021-05-09T13:13:44Z</time>
      </trkpt>
      <trkpt lat="45.06231" lon="5.63146">
        <ele>466.8</ele>
        <time>2021-05-09T13:14:13Z</time>
      </trkpt>
      <trkpt lat="45.06225" lon="5.63143">
        <ele>467.4</ele>
        <time>2021-05-09T13:14:39Z</time>
      </trkpt>
      <trkpt lat="45.06219" lon="5.63141">
        <ele>467.9</ele>
        <time>2021-05-09T13:15:05Z</time>
      </trkpt>
      <trkpt lat="45.06224" lon="5.63143">
        <ele>467.5</ele>
        <time>2021-05-09T13:15:35Z</time>
      </trkpt>
      <trkpt lat="45.06221" lon="5.63137">
        <ele>468.1</ele>
        <time>2021-05-09T13:16:04Z</time>
      </trkpt>
      <trkpt lat="45.06225" lon="5.63139">
        <ele>467.7</ele>
        <time>2021-05-09T13:16:37Z</time>
      </trkpt>
      <trkpt lat="45.06225" lon="5.63135">
        <ele>468</ele>
        <time>2021-05-09T13:17:06Z</time>
      </trkpt>
      <trkpt lat="45.06235" lon="5.63137">
        <ele>467.4</ele>
        <time>2021-05-09T13:17:31Z</time>
      </trkpt>
      <trkpt lat="45.06243" lon="5.63133">
        <ele>467.2</ele>
        <time>2021-05-09T13:17:58Z</time>
      </trkpt>
      <trkpt lat="45.0624" lon="5.6313">
        <ele>467.7</ele>
        <time>2021-05-09T13:18:22Z</time>
      </trkpt>
      <trkpt lat="45.06228" lon="5.63149">
        <ele>466.7</ele>
        <time>2021-05-09T13:18:46Z</time>
      </trkpt>
      <trkpt lat="45.06234" lon="5.63147">
        <ele>466.6</ele>
        <time>2021-05-09T13:19:13Z</time>
      </trkpt>
      <trkpt lat="45.06232" lon="5.63145">
        <ele>466.8</ele>
        <time>2021-05-09T13:19:40Z</time>
      </trkpt>
      <trkpt lat="45.06236" lon="5.63144">
        <ele>466.7</ele>
        <time>2021-05-09T13:20:06Z</time>
      </trkpt>
      <trkpt lat="45.06236" lon="5.63149">
        <ele>466.3</ele>
        <time>2021-05-09T13:20:25Z</time>
      </trkpt>
      <trkpt lat="45.0624" lon="5.63137">
        <ele>467</ele>
        <time>2021-05-09T13:20:51Z</time>
      </trkpt>
      <trkpt lat="45.06245" lon="5.63121">
        <ele>468.1</ele>
        <time>2021-05-09T13:21:15Z</time>
      </trkpt>
      <trkpt lat="45.06244" lon="5.63127">
        <ele>467.6</ele>
        <time>2021-05-09T13:21:44Z</time>
      </trkpt>
      <trkpt lat="45.06241" lon="5.63116">
        <ele>468.7</ele>
        <time>2021-05-09T13:22:11Z</time>
      </trkpt>
      <trkpt lat="45.06233" lon="5.63125">
        <ele>468.4</ele>
        <time>2021-05-09T13:22:43Z</time>
      </trkpt>
      <trkpt lat="45.06227" lon="5.63118">
        <ele>469.3</ele>
        <time>2021-05-09T13:23:08Z</time>
      </trkpt>
      <trkpt lat="45.06228" lon="5.63124">
        <ele>468.8</ele>
        <time>2021-05-09T13:23:40Z</time>
      </trkpt>
      <trkpt lat="45.06228" lon="5.63124">
        <ele>468.8</ele>
        <time>2021-05-09T13:24:11Z</time>
      </trkpt>
      <trkpt lat="45.06228" lon="5.63118">
        <ele>469.2</ele>
        <time>2021-05-09T13:24:34Z</time>
      </trkpt>
      <trkpt lat="45.0623" lon="5.6312">
        <ele>469</ele>
        <time>2021-05-09T13:24:58Z</time>
      </trkpt>
      <trkpt lat="45.06227" lon="5.63125">
        <ele>468.8</ele>
        <time>2021-05-09T13:25:30Z</time>
      </trkpt>
      <trkpt lat="45.06228" lon="5.63132">
        <ele>468.1</ele>
        <time>2021-05-09T13:25:51Z</time>
      </trkpt>
      <trkpt lat="45.06233" lon="5.63132">
        <ele>467.8</ele>
        <time>2021-05-09T13:26:19Z</time>
      </trkpt>
      <trkpt lat="45.06217" lon="5.63139">
        <ele>468.2</ele>
        <time>2021-05-09T13:26:40Z</time>
      </trkpt>
      <trkpt lat="45.06223" lon="5.63135">
        <ele>468.2</ele>
        <time>2021-05-09T13:27:08Z</time>
      </trkpt>
      <trkpt lat="45.06224" lon="5.63134">
        <ele>468.2</ele>
        <time>2021-05-09T13:27:18Z</time>
      </trkpt>
      <trkpt lat="45.06191" lon="5.63135">
        <ele>469.9</ele>
        <time>2021-05-09T13:27:38Z</time>
      </trkpt>
      <trkpt lat="45.062" lon="5.63134">
        <ele>469.5</ele>
        <time>2021-05-09T13:27:58Z</time>
      </trkpt>
      <trkpt lat="45.06208" lon="5.63131">
        <ele>469.3</ele>
        <time>2021-05-09T13:28:20Z</time>
      </trkpt>
      <trkpt lat="45.06226" lon="5.63133">
        <ele>468.1</ele>
        <time>2021-05-09T13:28:37Z</time>
      </trkpt>
      <trkpt lat="45.06255" lon="5.63138">
        <ele>466.1</ele>
        <time>2021-05-09T13:28:56Z</time>
      </trkpt>
      <trkpt lat="45.06252" lon="5.63128">
        <ele>467.1</ele>
        <time>2021-05-09T13:29:21Z</time>
      </trkpt>
      <trkpt lat="45.06244" lon="5.63138">
        <ele>466.7</ele>
        <time>2021-05-09T13:29:44Z</time>
      </trkpt>
      <trkpt lat="45.06234" lon="5.63134">
        <ele>467.6</ele>
        <time>2021-05-09T13:30:09Z</time>
      </trkpt>
      <trkpt lat="45.06234" lon="5.63132">
        <ele>467.8</ele>
        <time>2021-05-09T13:30:35Z</time>
      </trkpt>
      <trkpt lat="45.06238" lon="5.63137">
        <ele>467.1</ele>
        <time>2021-05-09T13:31:02Z</time>
      </trkpt>
      <trkpt lat="45.06244" lon="5.63136">
        <ele>466.9</ele>
        <time>2021-05-09T13:31:33Z</time>
      </trkpt>
      <trkpt lat="45.06247" lon="5.63135">
        <ele>466.9</ele>
        <time>2021-05-09T13:32:04Z</time>
      </trkpt>
      <trkpt lat="45.06245" lon="5.63139">
        <ele>466.6</ele>
        <time>2021-05-09T13:32:29Z</time>
      </trkpt>
      <trkpt lat="45.06256" lon="5.63147">
        <ele>465.3</ele>
        <time>2021-05-09T13:32:52Z</time>
      </trkpt>
      <trkpt lat="45.06273" lon="5.63157">
        <ele>463.5</ele>
        <time>2021-05-09T13:33:15Z</time>
      </trkpt>
      <trkpt lat="45.06336" lon="5.6312">
        <ele>463.9</ele>
        <time>2021-05-09T13:33:44Z</time>
      </trkpt>
      <trkpt lat="45.06331" lon="5.63115">
        <ele>464.7</ele>
        <time>2021-05-09T13:34:11Z</time>
      </trkpt>
      <trkpt lat="45.06257" lon="5.63136">
        <ele>466.2</ele>
        <time>2021-05-09T13:34:34Z</time>
      </trkpt>
      <trkpt lat="45.0625" lon="5.63143">
        <ele>466</ele>
        <time>2021-05-09T13:35:06Z</time>
      </trkpt>
      <trkpt lat="45.06225" lon="5.63133">
        <ele>468.3</ele>
        <time>2021-05-09T13:35:35Z</time>
      </trkpt>
      <trkpt lat="45.06203" lon="5.6315">
        <ele>468.1</ele>
        <time>2021-05-09T13:36:06Z</time>
      </trkpt>
      <trkpt lat="45.06223" lon="5.63149">
        <ele>467</ele>
        <time>2021-05-09T13:36:36Z</time>
      </trkpt>
      <trkpt lat="45.06235" lon="5.63155">
        <ele>465.9</ele>
        <time>2021-05-09T13:37:02Z</time>
      </trkpt>
      <trkpt lat="45.06252" lon="5.63154">
        <ele>465</ele>
        <time>2021-05-09T13:37:28Z</time>
      </trkpt>
      <trkpt lat="45.06238" lon="5.63148">
        <ele>466.3</ele>
        <time>2021-05-09T13:37:51Z</time>
      </trkpt>
      <trkpt lat="45.0624" lon="5.63147">
        <ele>466.2</ele>
        <time>2021-05-09T13:38:17Z</time>
      </trkpt>
      <trkpt lat="45.06237" lon="5.63148">
        <ele>466.3</ele>
        <time>2021-05-09T13:38:41Z</time>
      </trkpt>
      <trkpt lat="45.06227" lon="5.63141">
        <ele>467.4</ele>
        <time>2021-05-09T13:39:05Z</time>
      </trkpt>
      <trkpt lat="45.0624" lon="5.63139">
        <ele>466.9</ele>
        <time>2021-05-09T13:39:27Z</time>
      </trkpt>
      <trkpt lat="45.0625" lon="5.63136">
        <ele>466.6</ele>
        <time>2021-05-09T13:39:53Z</time>
      </trkpt>
      <trkpt lat="45.0626" lon="5.63136">
        <ele>466.1</ele>
        <time>2021-05-09T13:40:19Z</time>
      </trkpt>
      <trkpt lat="45.06263" lon="5.63141">
        <ele>465.5</ele>
        <time>2021-05-09T13:40:45Z</time>
      </trkpt>
      <trkpt lat="45.06238" lon="5.63147">
        <ele>466.3</ele>
        <time>2021-05-09T13:41:12Z</time>
      </trkpt>
      <trkpt lat="45.0623" lon="5.63148">
        <ele>466.7</ele>
        <time>2021-05-09T13:41:38Z</time>
      </trkpt>
      <trkpt lat="45.06234" lon="5.63152">
        <ele>466.2</ele>
        <time>2021-05-09T13:41:55Z</time>
      </trkpt>
      <trkpt lat="45.06233" lon="5.63149">
        <ele>466.5</ele>
        <time>2021-05-09T13:42:14Z</time>
      </trkpt>
      <trkpt lat="45.06236" lon="5.63141">
        <ele>466.9</ele>
        <time>2021-05-09T13:42:35Z</time>
      </trkpt>
      <trkpt lat="45.06247" lon="5.63151">
        <ele>465.5</ele>
        <time>2021-05-09T13:42:59Z</time>
      </trkpt>
      <trkpt lat="45.06264" lon="5.63157">
        <ele>464</ele>
        <time>2021-05-09T13:43:22Z</time>
      </trkpt>
      <trkpt lat="45.06278" lon="5.63167">
        <ele>462.3</ele>
        <time>2021-05-09T13:43:48Z</time>
      </trkpt>
      <trkpt lat="45.06298" lon="5.63169">
        <ele>460.9</ele>
        <time>2021-05-09T13:44:17Z</time>
      </trkpt>
      <trkpt lat="45.06312" lon="5.63168">
        <ele>460.1</ele>
        <time>2021-05-09T13:44:42Z</time>
      </trkpt>
      <trkpt lat="45.0633" lon="5.6317">
        <ele>458.9</ele>
        <time>2021-05-09T13:45:07Z</time>
      </trkpt>
      <trkpt lat="45.06357" lon="5.63181">
        <ele>456.3</ele>
        <time>2021-05-09T13:45:36Z</time>
      </trkpt>
      <trkpt lat="45.06376" lon="5.6319">
        <ele>454.5</ele>
        <time>2021-05-09T13:46:00Z</time>
      </trkpt>
      <trkpt lat="45.06397" lon="5.63196">
        <ele>452.9</ele>
        <time>2021-05-09T13:46:27Z</time>
      </trkpt>
      <trkpt lat="45.06425" lon="5.6321">
        <ele>451.3</ele>
        <time>2021-05-09T13:46:54Z</time>
      </trkpt>
      <trkpt lat="45.06426" lon="5.63212">
        <ele>451.3</ele>
        <time>2021-05-09T13:47:18Z</time>
      </trkpt>
      <trkpt lat="45.0644" lon="5.63228">
        <ele>450.7</ele>
        <time>2021-05-09T13:47:40Z</time>
      </trkpt>
      <trkpt lat="45.06462" lon="5.63252">
        <ele>450</ele>
        <time>2021-05-09T13:48:08Z</time>
      </trkpt>
      <trkpt lat="45.06485" lon="5.63273">
        <ele>449.2</ele>
        <time>2021-05-09T13:48:35Z</time>
      </trkpt>
      <trkpt lat="45.06514" lon="5.63291">
        <ele>447.8</ele>
        <time>2021-05-09T13:49:05Z</time>
      </trkpt>
      <trkpt lat="45.06541" lon="5.63309">
        <ele>445.7</ele>
        <time>2021-05-09T13:49:34Z</time>
      </trkpt>
      <trkpt lat="45.06564" lon="5.63326">
        <ele>443.9</ele>
        <time>2021-05-09T13:50:02Z</time>
      </trkpt>
      <trkpt lat="45.06567" lon="5.63332">
        <ele>443.3</ele>
        <time>2021-05-09T13:50:23Z</time>
      </trkpt>
      <trkpt lat="45.0658" lon="5.63337">
        <ele>442.6</ele>
        <time>2021-05-09T13:50:45Z</time>
      </trkpt>
      <trkpt lat="45.06604" lon="5.63367">
        <ele>439.4</ele>
        <time>2021-05-09T13:51:16Z</time>
      </trkpt>
      <trkpt lat="45.06622" lon="5.63394">
        <ele>437.1</ele>
        <time>2021-05-09T13:51:41Z</time>
      </trkpt>
      <trkpt lat="45.0664" lon="5.63411">
        <ele>436.2</ele>
        <time>2021-05-09T13:52:04Z</time>
      </trkpt>
      <trkpt lat="45.06663" lon="5.63438">
        <ele>434.5</ele>
        <time>2021-05-09T13:52:33Z</time>
      </trkpt>
      <trkpt lat="45.06683" lon="5.63459">
        <ele>434.9</ele>
        <time>2021-05-09T13:52:58Z</time>
      </trkpt>
      <trkpt lat="45.06697" lon="5.63471">
        <ele>435.8</ele>
        <time>2021-05-09T13:53:18Z</time>
      </trkpt>
      <trkpt lat="45.06709" lon="5.63482">
        <ele>436.5</ele>
        <time>2021-05-09T13:53:38Z</time>
      </trkpt>
      <trkpt lat="45.06732" lon="5.63499">
        <ele>438.4</ele>
        <time>2021-05-09T13:54:03Z</time>
      </trkpt>
      <trkpt lat="45.06755" lon="5.63519">
        <ele>437.9</ele>
        <time>2021-05-09T13:54:29Z</time>
      </trkpt>
      <trkpt lat="45.06778" lon="5.63534">
        <ele>436.6</ele>
        <time>2021-05-09T13:54:52Z</time>
      </trkpt>
      <trkpt lat="45.06794" lon="5.63557">
        <ele>433.3</ele>
        <time>2021-05-09T13:55:16Z</time>
      </trkpt>
      <trkpt lat="45.06817" lon="5.63584">
        <ele>430</ele>
        <time>2021-05-09T13:55:45Z</time>
      </trkpt>
      <trkpt lat="45.06839" lon="5.63608">
        <ele>428.9</ele>
        <time>2021-05-09T13:56:12Z</time>
      </trkpt>
      <trkpt lat="45.06866" lon="5.63631">
        <ele>428</ele>
        <time>2021-05-09T13:56:41Z</time>
      </trkpt>
      <trkpt lat="45.06889" lon="5.63651">
        <ele>426.8</ele>
        <time>2021-05-09T13:57:07Z</time>
      </trkpt>
      <trkpt lat="45.06911" lon="5.63676">
        <ele>424.8</ele>
        <time>2021-05-09T13:57:34Z</time>
      </trkpt>
      <trkpt lat="45.06934" lon="5.63698">
        <ele>423.2</ele>
        <time>2021-05-09T13:57:59Z</time>
      </trkpt>
      <trkpt lat="45.06953" lon="5.63716">
        <ele>421.8</ele>
        <time>2021-05-09T13:58:22Z</time>
      </trkpt>
      <trkpt lat="45.06969" lon="5.63728">
        <ele>420.8</ele>
        <time>2021-05-09T13:58:41Z</time>
      </trkpt>
      <trkpt lat="45.06987" lon="5.63752">
        <ele>418.5</ele>
        <time>2021-05-09T13:59:04Z</time>
      </trkpt>
      <trkpt lat="45.07003" lon="5.63776">
        <ele>417.1</ele>
        <time>2021-05-09T13:59:25Z</time>
      </trkpt>
      <trkpt lat="45.07021" lon="5.63803">
        <ele>416.1</ele>
        <time>2021-05-09T13:59:50Z</time>
      </trkpt>
      <trkpt lat="45.07039" lon="5.63829">
        <ele>415.2</ele>
        <time>2021-05-09T14:00:14Z</time>
      </trkpt>
      <trkpt lat="45.0706" lon="5.63845">
        <ele>415</ele>
        <time>2021-05-09T14:00:37Z</time>
      </trkpt>
      <trkpt lat="45.07089" lon="5.63859">
        <ele>415.3</ele>
        <time>2021-05-09T14:01:05Z</time>
      </trkpt>
      <trkpt lat="45.07111" lon="5.63878">
        <ele>414.4</ele>
        <time>2021-05-09T14:01:29Z</time>
      </trkpt>
      <trkpt lat="45.07117" lon="5.63884">
        <ele>414.2</ele>
        <time>2021-05-09T14:01:35Z</time>
      </trkpt>
      <trkpt lat="45.07134" lon="5.63912">
        <ele>412.1</ele>
        <time>2021-05-09T14:02:00Z</time>
      </trkpt>
      <trkpt lat="45.07136" lon="5.63945">
        <ele>408.4</ele>
        <time>2021-05-09T14:02:26Z</time>
      </trkpt>
      <trkpt lat="45.07136" lon="5.63958">
        <ele>406.9</ele>
        <time>2021-05-09T14:02:47Z</time>
      </trkpt>
      <trkpt lat="45.07136" lon="5.63974">
        <ele>404.9</ele>
        <time>2021-05-09T14:03:06Z</time>
      </trkpt>
      <trkpt lat="45.07143" lon="5.64006">
        <ele>401.7</ele>
        <time>2021-05-09T14:03:32Z</time>
      </trkpt>
      <trkpt lat="45.0716" lon="5.64032">
        <ele>400.2</ele>
        <time>2021-05-09T14:03:58Z</time>
      </trkpt>
      <trkpt lat="45.07165" lon="5.64031">
        <ele>400.4</ele>
        <time>2021-05-09T14:04:18Z</time>
      </trkpt>
      <trkpt lat="45.07167" lon="5.64045">
        <ele>399.3</ele>
        <time>2021-05-09T14:04:40Z</time>
      </trkpt>
      <trkpt lat="45.07163" lon="5.64067">
        <ele>397.4</ele>
        <time>2021-05-09T14:04:56Z</time>
      </trkpt>
      <trkpt lat="45.07157" lon="5.64092">
        <ele>395.5</ele>
        <time>2021-05-09T14:05:18Z</time>
      </trkpt>
      <trkpt lat="45.07155" lon="5.64116">
        <ele>394.3</ele>
        <time>2021-05-09T14:05:40Z</time>
      </trkpt>
      <trkpt lat="45.07161" lon="5.64151">
        <ele>392.6</ele>
        <time>2021-05-09T14:06:09Z</time>
      </trkpt>
      <trkpt lat="45.07165" lon="5.64184">
        <ele>390.7</ele>
        <time>2021-05-09T14:06:33Z</time>
      </trkpt>
      <trkpt lat="45.07161" lon="5.6421">
        <ele>388.7</ele>
        <time>2021-05-09T14:06:54Z</time>
      </trkpt>
      <trkpt lat="45.07156" lon="5.64241">
        <ele>386.3</ele>
        <time>2021-05-09T14:07:16Z</time>
      </trkpt>
      <trkpt lat="45.07162" lon="5.64261">
        <ele>385.3</ele>
        <time>2021-05-09T14:07:35Z</time>
      </trkpt>
      <trkpt lat="45.07173" lon="5.64283">
        <ele>384.5</ele>
        <time>2021-05-09T14:07:56Z</time>
      </trkpt>
      <trkpt lat="45.07174" lon="5.6429">
        <ele>384.2</ele>
        <time>2021-05-09T14:08:17Z</time>
      </trkpt>
      <trkpt lat="45.07174" lon="5.64292">
        <ele>384.1</ele>
        <time>2021-05-09T14:08:38Z</time>
      </trkpt>
    </trkseg>
  </trk>
</gpx>